Time;durP1;ratioP1;P1;durP2;ratioP2;P2;SDS_P1;SDS_P2;PMS_P1;PMS_P2;Temp;Humidity;BMP_temperature;BMP_pressure;BME280_temperature;BME280_humidity;BME280_pressure;Samples;Min_cycle;Max_cycle;Signal;HPM_P1;HPM_P2
2022/02/19 00:01:36;;;;;;;0.90;0.85;;;16.70;64.70;;;;;;5054516;28;20047;-27
2022/02/19 00:04:03;;;;;;;1.17;0.80;;;16.70;64.60;;;;;;5055474;28;20033;-27
2022/02/19 00:06:28;;;;;;;1.00;0.82;;;16.70;64.60;;;;;;5058439;28;20501;-28
2022/02/19 00:08:54;;;;;;;0.75;0.70;;;16.70;64.60;;;;;;5060378;28;20450;-28
2022/02/19 00:11:19;;;;;;;0.77;0.77;;;16.70;64.50;;;;;;5071552;28;20071;-28
2022/02/19 00:13:45;;;;;;;1.00;0.70;;;16.70;64.70;;;;;;5061735;28;20064;-28
2022/02/19 00:16:11;;;;;;;0.50;0.50;;;16.60;64.90;;;;;;5056247;28;20102;-27
2022/02/19 00:18:36;;;;;;;0.95;0.77;;;16.60;64.90;;;;;;5055321;28;20044;-27
2022/02/19 00:21:03;;;;;;;0.90;0.70;;;16.70;64.80;;;;;;5055292;28;20046;-28
2022/02/19 00:23:29;;;;;;;1.20;1.00;;;16.60;64.80;;;;;;5057323;28;20043;-28
2022/02/19 00:25:57;;;;;;;0.70;0.60;;;16.60;64.90;;;;;;5065825;28;20095;-28
2022/02/19 00:28:23;;;;;;;0.77;0.70;;;16.60;64.90;;;;;;5059946;28;20041;-27
2022/02/19 00:30:49;;;;;;;0.68;0.65;;;16.60;64.90;;;;;;5065733;28;20056;-27
2022/02/19 00:33:14;;;;;;;0.68;0.50;;;16.60;64.90;;;;;;5055031;28;20044;-27
2022/02/19 00:35:40;;;;;;;0.95;0.68;;;16.60;64.90;;;;;;5054214;28;20120;-27
2022/02/19 00:38:06;;;;;;;1.73;0.68;;;16.60;64.90;;;;;;5054992;28;20052;-27
2022/02/19 00:40:32;;;;;;;0.88;0.88;;;16.60;64.90;;;;;;5054551;28;20131;-27
2022/02/19 00:42:57;;;;;;;0.70;0.60;;;16.60;64.90;;;;;;5054651;28;20083;-27
2022/02/19 00:45:23;;;;;;;0.70;0.50;;;16.60;64.70;;;;;;5055838;28;20133;-28
2022/02/19 00:47:48;;;;;;;0.63;0.63;;;16.60;64.80;;;;;;5058953;28;20068;-27
2022/02/19 00:50:14;;;;;;;0.70;0.70;;;16.60;64.80;;;;;;5058906;28;20064;-27
2022/02/19 00:52:40;;;;;;;0.98;0.73;;;16.60;64.80;;;;;;5058561;28;20037;-27
2022/02/19 00:55:06;;;;;;;0.75;0.75;;;16.60;64.80;;;;;;5074170;28;20041;-27
2022/02/19 00:57:32;;;;;;;1.08;0.65;;;16.60;64.70;;;;;;5056829;28;20029;-27
2022/02/19 00:59:57;;;;;;;0.70;0.70;;;16.60;64.80;;;;;;5058603;28;20044;-27
2022/02/19 01:02:23;;;;;;;0.60;0.50;;;16.60;64.70;;;;;;5067565;28;20047;-28
2022/02/19 01:04:49;;;;;;;0.88;0.77;;;16.50;64.90;;;;;;5059078;28;20045;-27
2022/02/19 01:07:14;;;;;;;1.52;0.50;;;16.60;64.90;;;;;;5077736;28;20508;-27
2022/02/19 01:09:40;;;;;;;0.65;0.65;;;16.60;64.80;;;;;;5077848;28;20102;-27
2022/02/19 01:12:06;;;;;;;0.80;0.60;;;16.60;64.80;;;;;;5077045;28;20470;-27
2022/02/19 01:14:31;;;;;;;0.70;0.57;;;16.50;64.80;;;;;;5057541;28;20406;-27
2022/02/19 01:16:57;;;;;;;0.95;0.90;;;16.50;64.90;;;;;;5058276;28;20037;-27
2022/02/19 01:19:22;;;;;;;0.70;0.52;;;16.50;64.90;;;;;;5058141;28;20072;-28
2022/02/19 01:21:48;;;;;;;0.57;0.57;;;16.50;64.90;;;;;;5057181;28;20125;-27
2022/02/19 01:24:14;;;;;;;0.50;0.50;;;16.50;64.80;;;;;;5058227;28;20052;-27
2022/02/19 01:26:39;;;;;;;1.48;0.55;;;16.50;64.70;;;;;;5057622;28;20127;-27
2022/02/19 01:29:05;;;;;;;0.52;0.52;;;16.60;64.60;;;;;;5058113;28;20037;-28
2022/02/19 01:31:31;;;;;;;0.60;0.50;;;16.60;64.60;;;;;;5057508;28;20037;-26
2022/02/19 01:33:57;;;;;;;0.85;0.70;;;16.50;64.60;;;;;;5060417;28;20195;-27
2022/02/19 01:36:23;;;;;;;0.65;0.50;;;16.60;64.60;;;;;;5077233;28;20094;-28
2022/02/19 01:38:48;;;;;;;0.65;0.60;;;16.50;64.50;;;;;;5073992;28;20406;-27
2022/02/19 01:41:14;;;;;;;0.52;0.50;;;16.50;64.60;;;;;;5066508;28;20033;-27
2022/02/19 01:43:39;;;;;;;0.60;0.60;;;16.50;64.50;;;;;;5063995;28;20502;-27
2022/02/19 01:46:05;;;;;;;0.80;0.70;;;16.50;64.50;;;;;;5057749;28;20044;-27
2022/02/19 01:48:30;;;;;;;0.80;0.52;;;16.50;64.80;;;;;;5056887;28;20421;-28
2022/02/19 01:50:56;;;;;;;0.90;0.60;;;16.50;64.70;;;;;;5057664;28;20336;-27
2022/02/19 01:53:22;;;;;;;0.60;0.50;;;16.50;64.80;;;;;;5057489;28;20587;-27
2022/02/19 01:55:47;;;;;;;0.90;0.57;;;16.50;64.80;;;;;;5055150;28;20049;-28
2022/02/19 01:58:13;;;;;;;0.73;0.52;;;16.40;64.90;;;;;;5057502;28;20094;-27
2022/02/19 02:00:39;;;;;;;0.73;0.63;;;16.40;64.70;;;;;;5056794;28;20555;-27
2022/02/19 02:03:05;;;;;;;0.80;0.60;;;16.40;64.90;;;;;;5057663;28;20159;-27
2022/02/19 02:05:33;;;;;;;0.63;0.55;;;16.40;64.90;;;;;;5062454;28;20048;-27
2022/02/19 02:08:00;;;;;;;0.80;0.50;;;16.40;64.80;;;;;;5057302;28;20052;-27
2022/02/19 02:10:26;;;;;;;0.55;0.55;;;16.40;64.80;;;;;;5056151;28;20441;-27
2022/02/19 02:12:52;;;;;;;0.50;0.40;;;16.40;64.80;;;;;;5056590;28;20123;-27
2022/02/19 02:15:29;;;;;;;0.82;0.50;;;16.40;64.80;;;;;;5057073;28;20053;-27
2022/02/19 02:17:56;;;;;;;0.60;0.55;;;16.40;64.80;;;;;;5056475;28;20053;-28
2022/02/19 02:20:22;;;;;;;0.60;0.50;;;16.40;65.70;;;;;;5057228;28;20041;-27
2022/02/19 02:22:47;;;;;;;0.90;0.60;;;16.30;64.80;;;;;;5067282;28;20051;-27
2022/02/19 02:25:13;;;;;;;0.60;0.55;;;16.40;64.80;;;;;;5065296;28;20037;-27
2022/02/19 02:27:39;;;;;;;0.68;0.50;;;16.30;64.80;;;;;;5068164;28;20089;-28
2022/02/19 02:30:05;;;;;;;0.57;0.40;;;16.30;64.90;;;;;;5064723;28;20383;-27
2022/02/19 02:32:30;;;;;;;1.95;0.88;;;16.30;64.70;;;;;;5056265;28;20036;-28
2022/02/19 02:34:56;;;;;;;0.63;0.50;;;16.30;64.90;;;;;;5062985;28;20040;-27
2022/02/19 02:37:25;;;;;;;0.80;0.60;;;16.30;64.80;;;;;;5076679;28;20538;-27
2022/02/19 02:39:51;;;;;;;0.60;0.60;;;16.20;64.90;;;;;;5058386;28;20041;-27
2022/02/19 02:42:18;;;;;;;0.70;0.52;;;16.20;64.80;;;;;;5056753;28;20040;-27
2022/02/19 02:44:44;;;;;;;0.70;0.60;;;16.20;65.00;;;;;;5055729;28;20103;-27
2022/02/19 02:47:09;;;;;;;0.57;0.57;;;16.20;64.90;;;;;;5056673;28;20049;-27
2022/02/19 02:49:35;;;;;;;0.65;0.50;;;16.20;65.10;;;;;;5055903;28;20052;-28
2022/02/19 02:52:01;;;;;;;0.43;0.43;;;16.20;64.90;;;;;;5056329;28;20037;-27
2022/02/19 02:54:27;;;;;;;0.40;0.40;;;16.20;65.10;;;;;;5060935;28;20116;-27
2022/02/19 02:56:52;;;;;;;0.75;0.50;;;16.20;64.80;;;;;;5069244;28;20048;-28
2022/02/19 02:59:18;;;;;;;0.30;0.30;;;16.10;65.00;;;;;;5057756;28;20048;-27
2022/02/19 03:01:43;;;;;;;1.10;0.50;;;16.10;65.00;;;;;;5069741;28;20048;-28
2022/02/19 03:04:09;;;;;;;0.57;0.40;;;16.10;65.00;;;;;;5076259;28;20127;-27
2022/02/19 03:06:34;;;;;;;0.70;0.50;;;16.10;65.10;;;;;;5072991;28;20068;-27
2022/02/19 03:09:00;;;;;;;0.50;0.50;;;16.10;65.10;;;;;;5067814;28;20127;-27
2022/02/19 03:11:26;;;;;;;0.55;0.50;;;16.10;65.00;;;;;;5076151;28;20124;-27
2022/02/19 03:13:51;;;;;;;0.43;0.38;;;16.10;65.00;;;;;;5075290;28;20485;-27
2022/02/19 03:16:17;;;;;;;0.60;0.50;;;16.10;65.00;;;;;;5074722;28;20055;-28
2022/02/19 03:18:42;;;;;;;0.60;0.60;;;16.10;64.90;;;;;;5055245;28;20104;-27
2022/02/19 03:21:08;;;;;;;0.45;0.40;;;16.10;65.00;;;;;;5055863;28;20045;-27
2022/02/19 03:23:33;;;;;;;0.57;0.50;;;16.10;65.10;;;;;;5070441;28;20135;-27
2022/02/19 03:25:59;;;;;;;0.70;0.32;;;16.10;65.00;;;;;;5054622;28;20048;-27
2022/02/19 03:28:25;;;;;;;0.55;0.55;;;16.10;65.00;;;;;;5056038;28;20047;-27
2022/02/19 03:30:50;;;;;;;0.90;0.50;;;16.10;65.00;;;;;;5055001;28;20047;-28
2022/02/19 03:33:16;;;;;;;0.50;0.30;;;16.00;64.90;;;;;;5055844;28;20210;-27
2022/02/19 03:35:41;;;;;;;0.70;0.60;;;16.00;65.00;;;;;;5055192;28;20056;-29
2022/02/19 03:38:07;;;;;;;0.50;0.47;;;16.00;65.00;;;;;;5055579;28;20064;-27
2022/02/19 03:40:33;;;;;;;0.63;0.38;;;16.00;65.10;;;;;;5055118;28;20057;-27
2022/02/19 03:43:01;;;;;;;0.30;0.30;;;16.00;65.10;;;;;;5055621;28;20041;-27
2022/02/19 03:45:27;;;;;;;0.85;0.43;;;16.00;65.10;;;;;;5055352;28;20040;-27
2022/02/19 03:47:53;;;;;;;0.52;0.52;;;16.00;65.20;;;;;;5055029;28;20076;-27
2022/02/19 03:50:18;;;;;;;1.10;0.60;;;16.00;65.20;;;;;;5055612;28;20045;-28
2022/02/19 03:52:45;;;;;;;1.05;0.55;;;16.00;65.20;;;;;;5054680;28;20860;-27
2022/02/19 03:55:10;;;;;;;0.40;0.40;;;15.90;65.20;;;;;;5055577;28;20129;-27
2022/02/19 03:57:36;;;;;;;0.80;0.50;;;15.90;65.10;;;;;;5054957;28;20037;-28
2022/02/19 04:00:04;;;;;;;0.57;0.52;;;16.00;65.30;;;;;;5055341;28;20045;-27
2022/02/19 04:02:30;;;;;;;0.50;0.50;;;16.00;65.30;;;;;;5055427;28;20388;-27
2022/02/19 04:04:55;;;;;;;1.20;0.50;;;16.00;65.40;;;;;;5054798;28;20072;-28
2022/02/19 04:07:21;;;;;;;0.30;0.22;;;16.00;65.20;;;;;;5073608;28;20040;-27
2022/02/19 04:09:47;;;;;;;0.40;0.40;;;15.90;65.20;;;;;;5074895;28;20059;-27
2022/02/19 04:12:13;;;;;;;0.38;0.30;;;15.90;65.20;;;;;;5075214;28;20552;-27
2022/02/19 04:14:38;;;;;;;0.60;0.40;;;15.90;65.30;;;;;;5072340;28;20091;-27
2022/02/19 04:17:04;;;;;;;0.40;0.40;;;15.90;65.20;;;;;;5068201;28;20044;-27
2022/02/19 04:19:29;;;;;;;0.50;0.40;;;16.00;65.30;;;;;;5066427;28;20053;-27
2022/02/19 04:21:55;;;;;;;0.40;0.40;;;15.90;65.20;;;;;;5074839;28;20409;-27
2022/02/19 04:24:21;;;;;;;0.60;0.40;;;15.90;65.20;;;;;;5058834;28;20135;-27
2022/02/19 04:26:46;;;;;;;0.50;0.50;;;15.90;65.30;;;;;;5058561;28;20040;-27
2022/02/19 04:29:12;;;;;;;1.02;0.30;;;15.90;65.30;;;;;;5058729;28;20044;-28
2022/02/19 04:31:38;;;;;;;1.42;0.60;;;15.90;65.30;;;;;;5058643;28;20041;-27
2022/02/19 04:34:04;;;;;;;0.43;0.30;;;15.90;65.30;;;;;;5058772;28;20040;-27
2022/02/19 04:36:31;;;;;;;0.50;0.30;;;15.90;65.30;;;;;;5059129;28;20041;-27
2022/02/19 04:38:57;;;;;;;0.50;0.50;;;15.90;65.40;;;;;;5058374;28;20056;-28
2022/02/19 04:41:23;;;;;;;0.40;0.32;;;15.80;65.30;;;;;;5059102;28;20040;-28
2022/02/19 04:43:49;;;;;;;1.33;0.52;;;15.80;66.20;;;;;;5059926;28;20051;-29
2022/02/19 04:46:14;;;;;;;1.05;0.63;;;15.90;65.40;;;;;;5069550;28;20521;-27
2022/02/19 04:48:40;;;;;;;0.40;0.28;;;15.90;65.40;;;;;;5062291;28;20056;-27
2022/02/19 04:51:05;;;;;;;0.88;0.35;;;15.90;65.50;;;;;;5074819;28;20516;-28
2022/02/19 04:53:32;;;;;;;0.90;0.60;;;15.80;65.50;;;;;;5058572;28;20082;-28
2022/02/19 04:55:58;;;;;;;0.30;0.30;;;15.80;65.50;;;;;;5057937;28;20041;-27
2022/02/19 04:58:23;;;;;;;0.57;0.40;;;15.90;65.60;;;;;;5058677;28;20051;-27
2022/02/19 05:00:49;;;;;;;0.50;0.35;;;15.80;65.40;;;;;;5057898;28;20468;-28
2022/02/19 05:03:14;;;;;;;1.75;0.40;;;15.80;65.40;;;;;;5078660;28;20048;-27
2022/02/19 05:05:40;;;;;;;0.63;0.47;;;15.80;65.50;;;;;;5077909;28;20236;-27
2022/02/19 05:08:06;;;;;;;0.30;0.30;;;15.80;65.50;;;;;;5077208;28;20500;-27
2022/02/19 05:10:31;;;;;;;0.40;0.30;;;15.80;65.40;;;;;;5061590;28;20101;-27
2022/02/19 05:12:57;;;;;;;0.50;0.40;;;15.80;65.50;;;;;;5057709;28;20064;-28
2022/02/19 05:15:22;;;;;;;0.43;0.40;;;15.80;65.30;;;;;;5058140;28;20048;-27
2022/02/19 05:17:50;;;;;;;0.60;0.40;;;15.80;65.50;;;;;;5057446;28;20053;-27
2022/02/19 05:20:22;;;;;;;0.60;0.50;;;15.80;65.50;;;;;;5057952;28;20051;-28
2022/02/19 05:22:48;;;;;;;1.05;0.40;;;15.80;65.50;;;;;;5068441;28;20064;-27
2022/02/19 05:25:14;;;;;;;0.40;0.40;;;15.80;65.40;;;;;;5078133;28;20033;-27
2022/02/19 05:27:39;;;;;;;0.30;0.30;;;15.80;65.50;;;;;;5077544;28;20045;-27
2022/02/19 05:30:05;;;;;;;0.63;0.50;;;15.80;65.50;;;;;;5070736;28;20045;-27
2022/02/19 05:32:31;;;;;;;0.40;0.40;;;15.80;65.40;;;;;;5068897;28;20105;-27
2022/02/19 05:34:56;;;;;;;0.75;0.52;;;15.80;65.50;;;;;;5065273;28;20041;-27
2022/02/19 05:37:22;;;;;;;0.68;0.55;;;15.80;65.50;;;;;;5068497;28;20104;-27
2022/02/19 05:39:47;;;;;;;0.75;0.40;;;15.80;65.50;;;;;;5077312;28;20041;-27
2022/02/19 05:42:13;;;;;;;0.38;0.35;;;15.80;65.50;;;;;;5078020;28;20041;-28
2022/02/19 05:44:39;;;;;;;0.30;0.30;;;15.80;65.50;;;;;;5058283;28;20076;-26
2022/02/19 05:47:04;;;;;;;0.77;0.50;;;15.80;65.40;;;;;;5057855;28;20072;-27
2022/02/19 05:49:30;;;;;;;0.40;0.20;;;15.80;65.50;;;;;;5057799;28;20045;-28
2022/02/19 05:51:55;;;;;;;0.63;0.30;;;15.80;65.70;;;;;;5055689;28;20451;-27
2022/02/19 05:54:21;;;;;;;0.47;0.30;;;15.80;65.50;;;;;;5057659;28;20512;-27
2022/02/19 05:56:47;;;;;;;0.50;0.30;;;15.70;65.60;;;;;;5056971;28;20045;-27
2022/02/19 05:59:12;;;;;;;0.40;0.40;;;15.80;65.70;;;;;;5057326;28;20045;-27
2022/02/19 06:01:38;;;;;;;0.68;0.38;;;15.70;65.60;;;;;;5057300;28;20071;-27
2022/02/19 06:04:04;;;;;;;0.30;0.30;;;15.70;65.70;;;;;;5071258;28;20043;-29
2022/02/19 06:06:29;;;;;;;0.95;0.40;;;15.80;65.40;;;;;;5075062;28;20052;-27
2022/02/19 06:08:55;;;;;;;0.43;0.25;;;15.80;65.50;;;;;;5066993;28;20072;-27
2022/02/19 06:11:20;;;;;;;0.73;0.30;;;15.70;65.50;;;;;;5057269;28;20567;-27
2022/02/19 06:13:46;;;;;;;0.40;0.30;;;15.70;65.60;;;;;;5056614;28;20094;-27
2022/02/19 06:16:12;;;;;;;0.50;0.40;;;15.70;65.70;;;;;;5068088;28;20041;-27
2022/02/19 06:18:37;;;;;;;0.50;0.30;;;15.70;65.80;;;;;;5056873;28;20102;-27
2022/02/19 06:21:03;;;;;;;0.50;0.30;;;15.70;65.70;;;;;;5067937;28;20106;-27
2022/02/19 06:23:28;;;;;;;0.50;0.32;;;15.70;65.70;;;;;;5071626;28;20107;-27
2022/02/19 06:25:54;;;;;;;0.40;0.40;;;15.70;65.70;;;;;;5062210;28;20128;-27
2022/02/19 06:28:20;;;;;;;0.68;0.30;;;15.70;65.70;;;;;;5062584;28;20051;-27
2022/02/19 06:30:45;;;;;;;0.65;0.40;;;15.70;65.70;;;;;;5065453;28;20136;-27
2022/02/19 06:33:11;;;;;;;0.50;0.40;;;15.70;65.70;;;;;;5061094;28;20044;-27
2022/02/19 06:35:36;;;;;;;0.30;0.30;;;15.70;65.70;;;;;;5070601;28;20079;-27
2022/02/19 06:38:02;;;;;;;0.75;0.30;;;15.70;65.80;;;;;;5061799;28;20057;-28
2022/02/19 06:40:28;;;;;;;0.38;0.30;;;15.60;65.70;;;;;;5064013;28;20222;-27
2022/02/19 06:42:53;;;;;;;0.40;0.30;;;15.70;65.70;;;;;;5066113;28;20486;-27
2022/02/19 06:45:19;;;;;;;0.82;0.43;;;15.70;65.70;;;;;;5064253;28;20043;-28
2022/02/19 06:47:44;;;;;;;0.25;0.25;;;15.70;65.60;;;;;;5069283;28;20044;-27
2022/02/19 06:50:10;;;;;;;0.63;0.40;;;15.70;65.70;;;;;;5065003;28;20138;-28
2022/02/19 06:52:36;;;;;;;0.30;0.25;;;15.70;65.70;;;;;;5065568;28;20067;-27
2022/02/19 06:55:02;;;;;;;0.60;0.40;;;15.70;65.70;;;;;;5068942;28;20569;-27
2022/02/19 06:57:29;;;;;;;0.52;0.50;;;15.70;65.60;;;;;;5067324;28;20071;-27
2022/02/19 06:59:54;;;;;;;0.60;0.40;;;15.60;65.60;;;;;;5065334;28;20036;-27
2022/02/19 07:02:20;;;;;;;0.77;0.40;;;15.60;65.70;;;;;;5066588;28;20033;-27
2022/02/19 07:04:46;;;;;;;0.60;0.40;;;15.60;65.70;;;;;;5065436;28;20477;-26
2022/02/19 07:07:14;;;;;;;0.50;0.22;;;15.70;65.70;;;;;;5072951;28;20413;-27
2022/02/19 07:09:40;;;;;;;1.15;0.30;;;15.70;65.70;;;;;;5074971;28;20501;-27
2022/02/19 07:12:06;;;;;;;1.02;0.40;;;15.70;65.70;;;;;;5075457;28;20416;-27
2022/02/19 07:14:32;;;;;;;0.60;0.30;;;15.70;65.80;;;;;;5075910;28;20489;-27
2022/02/19 07:17:04;;;;;;;0.30;0.20;;;15.70;65.70;;;;;;5068922;28;20048;-27
2022/02/19 07:19:33;;;;;;;0.40;0.20;;;15.60;65.70;;;;;;5056617;28;20410;-26
2022/02/19 07:21:59;;;;;;;0.40;0.40;;;15.60;65.70;;;;;;5060613;28;20032;-27
2022/02/19 07:24:25;;;;;;;0.77;0.45;;;15.60;65.60;;;;;;4709379;28;10000032;-28
2022/02/19 07:26:50;;;;;;;1.25;0.60;;;15.70;65.60;;;;;;5061850;28;20074;-27
2022/02/19 07:29:16;;;;;;;2.65;0.40;;;15.70;65.50;;;;;;5072039;28;20070;-27
2022/02/19 07:31:41;;;;;;;0.20;0.20;;;15.80;65.50;;;;;;5071861;28;20438;-27
2022/02/19 07:34:07;;;;;;;0.65;0.30;;;15.80;65.30;;;;;;5066336;28;20106;-28
2022/02/19 07:36:33;;;;;;;0.68;0.40;;;15.70;65.40;;;;;;5070865;28;20048;-27
2022/02/19 07:38:59;;;;;;;0.85;0.47;;;15.70;65.50;;;;;;5071085;28;20041;-27
2022/02/19 07:41:24;;;;;;;0.60;0.30;;;15.70;65.50;;;;;;5071164;28;20044;-27
2022/02/19 07:43:50;;;;;;;0.20;0.20;;;15.80;65.40;;;;;;5069102;28;20217;-27
2022/02/19 07:46:15;;;;;;;0.45;0.30;;;15.70;65.20;;;;;;5070687;28;20055;-27
2022/02/19 07:48:41;;;;;;;1.65;0.30;;;15.80;65.10;;;;;;5069082;28;20041;-27
2022/02/19 07:59:19;;;;;;;0.50;0.40;;;15.70;65.30;;;;;;5071236;28;20043;-26
2022/02/19 08:01:45;;;;;;;0.60;0.47;;;15.80;65.00;;;;;;5069605;28;20044;-27
2022/02/19 08:04:11;;;;;;;0.82;0.22;;;15.80;65.00;;;;;;5067886;28;20139;-27
2022/02/19 08:06:37;;;;;;;0.32;0.25;;;15.90;65.00;;;;;;5069706;28;20080;-27
2022/02/19 08:09:02;;;;;;;0.50;0.40;;;15.80;65.10;;;;;;5068008;28;20448;-27
2022/02/19 08:11:28;;;;;;;0.70;0.50;;;15.90;65.10;;;;;;5071944;28;20053;-27
2022/02/19 08:13:54;;;;;;;0.40;0.38;;;15.90;65.10;;;;;;5063553;28;20130;-27
2022/02/19 08:16:20;;;;;;;1.38;0.50;;;15.80;65.20;;;;;;5059705;28;20120;-27
2022/02/19 08:18:47;;;;;;;0.40;0.28;;;15.80;65.10;;;;;;5067077;28;20506;-27
2022/02/19 08:21:13;;;;;;;0.88;0.55;;;15.80;65.10;;;;;;5060630;28;20041;-27
2022/02/19 08:23:39;;;;;;;0.75;0.45;;;15.80;64.90;;;;;;5058605;28;20056;-27
2022/02/19 08:26:04;;;;;;;2.50;0.40;;;15.70;65.00;;;;;;5063394;28;20101;-28
2022/02/19 08:28:30;;;;;;;0.95;0.60;;;15.80;65.10;;;;;;5050516;28;20049;-30
2022/02/19 08:30:55;;;;;;;0.57;0.57;;;15.80;64.90;;;;;;5043979;28;20041;-29
2022/02/19 08:33:21;;;;;;;0.82;0.60;;;15.80;64.90;;;;;;5043452;28;20106;-29
2022/02/19 08:35:47;;;;;;;1.27;0.70;;;15.70;65.20;;;;;;5043792;28;20045;-28
2022/02/19 08:38:12;;;;;;;5.65;0.40;;;15.70;65.30;;;;;;5042510;28;20071;-28
2022/02/19 08:40:39;;;;;;;0.70;0.50;;;15.80;65.10;;;;;;5046950;28;20247;-29
2022/02/19 08:43:05;;;;;;;0.50;0.40;;;15.70;65.20;;;;;;5046631;28;20057;-29
2022/02/19 08:45:30;;;;;;;0.70;0.47;;;15.70;65.30;;;;;;5052419;28;20041;-29
2022/02/19 08:48:01;;;;;;;1.27;0.60;;;15.70;65.40;;;;;;5055585;28;20148;-27
2022/02/19 08:50:28;;;;;;;0.47;0.45;;;15.70;65.30;;;;;;5054245;28;20076;-28
2022/02/19 08:52:54;;;;;;;1.92;0.47;;;15.70;65.30;;;;;;5047280;28;20429;-28
2022/02/19 08:55:20;;;;;;;0.63;0.38;;;15.80;65.20;;;;;;5047382;28;20049;-30
2022/02/19 08:57:45;;;;;;;1.20;0.50;;;15.90;65.00;;;;;;5039188;28;20575;-30
2022/02/19 09:00:12;;;;;;;0.35;0.30;;;15.80;64.90;;;;;;5038258;28;20108;-28
2022/02/19 09:02:38;;;;;;;0.30;0.22;;;15.80;64.80;;;;;;5056566;28;20646;-29
2022/02/19 09:05:07;;;;;;;0.68;0.30;;;15.90;64.70;;;;;;5047070;28;20539;-31
2022/02/19 09:07:36;;;;;;;1.20;0.40;;;15.90;64.80;;;;;;5048191;28;20109;-35
2022/02/19 09:10:03;;;;;;;0.85;0.40;;;15.90;64.70;;;;;;5054972;28;20079;-30
2022/02/19 09:12:28;;;;;;;0.43;0.40;;;16.00;64.70;;;;;;5045430;28;20051;-28
2022/02/19 09:14:54;;;;;;;0.50;0.32;;;16.00;64.50;;;;;;5047297;28;20509;-29
2022/02/19 09:17:20;;;;;;;1.00;0.50;;;16.00;64.50;;;;;;5054747;28;20045;-28
2022/02/19 09:19:45;;;;;;;0.80;0.50;;;16.00;64.30;;;;;;5046334;28;20045;-29
2022/02/19 09:22:11;;;;;;;0.52;0.38;;;15.90;64.20;;;;;;5040889;28;20414;-29
2022/02/19 09:24:37;;;;;;;0.80;0.68;;;16.00;64.20;;;;;;5044746;28;20067;-30
2022/02/19 09:27:03;;;;;;;0.80;0.45;;;16.00;65.00;;;;;;5041135;28;20100;-31
2022/02/19 09:29:29;;;;;;;0.88;0.50;;;16.00;64.10;;;;;;5041998;28;20119;-32
2022/02/19 09:31:54;;;;;;;0.57;0.28;;;16.10;64.00;;;;;;5054319;28;20132;-31
2022/02/19 09:34:22;;;;;;;0.52;0.52;;;16.10;64.00;;;;;;5043781;28;20257;-29
2022/02/19 09:36:49;;;;;;;0.63;0.60;;;16.20;64.00;;;;;;5061769;28;20109;-27
2022/02/19 09:39:14;;;;;;;0.45;0.40;;;16.30;63.60;;;;;;5061136;28;20049;-26
2022/02/19 09:41:44;;;;;;;0.45;0.38;;;16.40;63.20;;;;;;5072409;28;20170;-26
2022/02/19 09:44:09;;;;;;;0.63;0.45;;;16.40;63.30;;;;;;5056994;28;20045;-27
2022/02/19 09:46:35;;;;;;;1.25;0.50;;;16.40;63.20;;;;;;5057455;28;20570;-27
2022/02/19 09:49:03;;;;;;;0.65;0.40;;;16.40;63.10;;;;;;5057198;28;20048;-27
2022/02/19 09:51:28;;;;;;;0.93;0.50;;;16.40;63.10;;;;;;5057678;28;20329;-27
2022/02/19 09:53:54;;;;;;;0.88;0.45;;;16.50;62.90;;;;;;5056966;28;20282;-27
2022/02/19 09:56:24;;;;;;;3.13;0.43;;;16.60;62.60;;;;;;5057676;28;20041;-27
2022/02/19 09:58:50;;;;;;;2.05;0.30;;;16.60;62.50;;;;;;5057556;28;20060;-27
2022/02/19 10:01:20;;;;;;;0.40;0.40;;;16.70;62.50;;;;;;5056710;28;20060;-27
2022/02/19 10:03:46;;;;;;;0.40;0.30;;;16.60;62.30;;;;;;5057471;28;20099;-27
2022/02/19 10:06:13;;;;;;;0.45;0.40;;;16.70;62.30;;;;;;5065420;28;20048;-27
2022/02/19 10:08:38;;;;;;;1.17;0.40;;;16.70;62.10;;;;;;5061444;28;20056;-27
2022/02/19 10:11:04;;;;;;;0.57;0.30;;;16.70;62.10;;;;;;5063476;28;20045;-27
2022/02/19 10:13:31;;;;;;;1.08;0.40;;;16.70;62.10;;;;;;5064621;28;20132;-27
2022/02/19 10:15:57;;;;;;;0.93;0.40;;;16.70;62.30;;;;;;5056255;28;20036;-27
2022/02/19 10:18:37;;;;;;;0.55;0.40;;;16.70;62.10;;;;;;5056925;28;20052;-27
2022/02/19 10:21:22;;;;;;;0.30;0.30;;;16.70;62.10;;;;;;5056501;28;20091;-26
2022/02/19 10:23:49;;;;;;;0.60;0.50;;;16.80;61.90;;;;;;5056877;28;20605;-27
2022/02/19 10:26:17;;;;;;;0.35;0.35;;;16.80;62.00;;;;;;5056498;28;20056;-27
2022/02/19 10:28:59;;;;;;;0.57;0.52;;;16.80;61.90;;;;;;5056897;28;20049;-27
2022/02/19 10:31:25;;;;;;;0.52;0.30;;;16.80;61.90;;;;;;5056467;28;20087;-27
2022/02/19 10:33:50;;;;;;;0.88;0.30;;;16.80;62.00;;;;;;5056740;28;20041;-27
2022/02/19 10:36:20;;;;;;;0.35;0.35;;;16.80;62.00;;;;;;5038228;28;20048;-27
2022/02/19 10:38:58;;;;;;;0.30;0.30;;;16.80;62.00;;;;;;5062857;28;20565;-27
2022/02/19 10:41:37;;;;;;;0.45;0.45;;;16.80;62.00;;;;;;5056341;28;20575;-27
2022/02/19 10:44:22;;;;;;;0.50;0.40;;;16.80;61.90;;;;;;5056133;28;20041;-26
2022/02/19 10:46:49;;;;;;;0.45;0.35;;;16.80;61.90;;;;;;5056628;28;20505;-27
2022/02/19 10:49:14;;;;;;;0.25;0.25;;;16.80;62.10;;;;;;5056100;28;20049;-27
2022/02/19 10:51:41;;;;;;;0.73;0.20;;;16.80;62.10;;;;;;5056416;28;20048;-27
2022/02/19 10:54:08;;;;;;;0.40;0.40;;;16.80;62.10;;;;;;5055751;28;20651;-27
2022/02/19 10:56:34;;;;;;;0.43;0.28;;;16.80;62.10;;;;;;5038848;28;20041;-27
2022/02/19 10:59:01;;;;;;;0.30;0.30;;;16.80;62.00;;;;;;5056652;28;20041;-27
2022/02/19 11:01:27;;;;;;;0.38;0.30;;;16.80;62.00;;;;;;5062879;28;20444;-27
2022/02/19 11:03:53;;;;;;;0.40;0.30;;;16.80;62.10;;;;;;5074477;28;20182;-27
2022/02/19 11:06:18;;;;;;;0.90;0.40;;;16.80;62.00;;;;;;5070221;28;20513;-27
2022/02/19 11:08:44;;;;;;;0.50;0.50;;;16.90;62.00;;;;;;5066858;28;20048;-27
2022/02/19 11:11:11;;;;;;;0.55;0.40;;;16.90;61.90;;;;;;5063260;28;20062;-27
2022/02/19 11:13:36;;;;;;;0.40;0.25;;;16.90;61.90;;;;;;5076036;28;20037;-27
2022/02/19 11:16:04;;;;;;;0.80;0.50;;;16.90;61.90;;;;;;5075433;28;20135;-27
2022/02/19 11:18:32;;;;;;;1.27;0.30;;;16.90;61.90;;;;;;5075891;28;20048;-27
2022/02/19 11:20:58;;;;;;;0.43;0.43;;;16.90;61.90;;;;;;5076071;28;20040;-27
2022/02/19 11:23:23;;;;;;;0.40;0.30;;;16.90;61.80;;;;;;5053004;28;20102;-27
2022/02/19 11:25:50;;;;;;;0.30;0.30;;;16.90;61.80;;;;;;5038208;28;20053;-27
2022/02/19 11:28:15;;;;;;;0.32;0.20;;;16.90;61.80;;;;;;5054968;28;20045;-27
2022/02/19 11:30:49;;;;;;;0.28;0.20;;;16.90;61.80;;;;;;5037753;28;20048;-27
2022/02/19 11:33:15;;;;;;;0.50;0.32;;;16.90;61.70;;;;;;5037846;28;20036;-27
2022/02/19 11:35:41;;;;;;;0.50;0.30;;;16.90;61.70;;;;;;5037931;28;20047;-27
2022/02/19 11:38:26;;;;;;;0.30;0.30;;;17.00;61.80;;;;;;5070254;28;20382;-27
2022/02/19 11:40:59;;;;;;;0.40;0.38;;;17.00;61.70;;;;;;5062536;28;20128;-27
2022/02/19 11:43:31;;;;;;;0.32;0.30;;;16.90;61.70;;;;;;5055087;28;20037;-27
2022/02/19 11:45:56;;;;;;;0.65;0.32;;;17.00;61.80;;;;;;5055420;28;20517;-27
2022/02/19 11:48:27;;;;;;;0.30;0.30;;;17.00;61.70;;;;;;5055015;28;20437;-27
2022/02/19 11:51:12;;;;;;;0.47;0.43;;;17.00;61.70;;;;;;5055607;28;20086;-27
2022/02/19 11:53:37;;;;;;;0.13;0.13;;;17.00;61.80;;;;;;5053619;28;20132;-27
2022/02/19 11:56:10;;;;;;;0.43;0.22;;;17.00;61.80;;;;;;5054819;28;20127;-27
2022/02/19 11:58:54;;;;;;;0.45;0.30;;;17.00;61.80;;;;;;5055468;28;20123;-27
2022/02/19 12:01:19;;;;;;;0.35;0.30;;;16.90;61.70;;;;;;5053775;28;20068;-27
2022/02/19 12:03:45;;;;;;;0.40;0.22;;;17.00;61.70;;;;;;5055470;28;20044;-27
2022/02/19 12:06:15;;;;;;;0.20;0.20;;;17.00;61.70;;;;;;5067073;28;20413;-27
2022/02/19 12:08:46;;;;;;;0.30;0.20;;;17.00;61.70;;;;;;5075425;28;20041;-27
2022/02/19 12:11:12;;;;;;;0.77;0.28;;;17.00;61.70;;;;;;5074570;28;20049;-26
2022/02/19 12:13:42;;;;;;;0.30;0.20;;;17.00;61.70;;;;;;5070514;28;20064;-27
2022/02/19 12:16:48;;;;;;;0.75;0.30;;;17.00;61.70;;;;;;5054505;28;20509;-26
2022/02/19 12:19:14;;;;;;;0.20;0.20;;;17.00;61.70;;;;;;5054591;28;20061;-27
2022/02/19 12:21:43;;;;;;;0.32;0.30;;;17.00;61.60;;;;;;5055130;28;20051;-27
2022/02/19 12:24:18;;;;;;;0.40;0.30;;;17.00;61.60;;;;;;5054541;28;20060;-27
2022/02/19 12:26:56;;;;;;;0.20;0.20;;;17.00;61.60;;;;;;5056165;28;20045;-27
2022/02/19 12:29:41;;;;;;;0.25;0.25;;;17.00;61.50;;;;;;5061433;28;20114;-26
2022/02/19 12:32:22;;;;;;;0.30;0.20;;;17.00;61.50;;;;;;5063126;28;20041;-27
2022/02/19 12:34:55;;;;;;;0.20;0.20;;;17.00;61.40;;;;;;5055134;28;20139;-27
2022/02/19 12:37:21;;;;;;;0.30;0.20;;;17.00;61.40;;;;;;5063172;28;20048;-27
2022/02/19 12:39:48;;;;;;;0.65;0.30;;;17.10;61.40;;;;;;5061896;28;20045;-27
2022/02/19 12:42:17;;;;;;;0.20;0.20;;;17.10;61.50;;;;;;5057446;28;20029;-27
2022/02/19 12:44:42;;;;;;;0.20;0.10;;;17.10;61.40;;;;;;5058782;28;20037;-27
2022/02/19 12:47:08;;;;;;;0.40;0.15;;;17.10;61.40;;;;;;5058385;28;20074;-27
2022/02/19 12:49:33;;;;;;;0.32;0.30;;;17.10;61.40;;;;;;5059059;28;20044;-27
2022/02/19 12:52:01;;;;;;;0.88;0.30;;;17.10;61.40;;;;;;5058779;28;20044;-27